sensor_id;sensor_type;location;lat;lon;timestamp;P1;durP1;ratioP1;P2;durP2;ratioP2
72493;SDS011;60520;49.182;-0.348;2022-11-15T00:00:43;3.33;;;1.08;;
72493;SDS011;60520;49.182;-0.348;2022-11-15T00:03:12;1.77;;;0.98;;
72493;SDS011;60520;49.182;-0.348;2022-11-15T00:05:39;1.40;;;0.80;;
72493;SDS011;60520;49.182;-0.348;2022-11-15T00:08:10;1.70;;;1.10;;
72493;SDS011;60520;49.182;-0.348;2022-11-15T00:10:37;1.63;;;1.00;;
72493;SDS011;60520;49.182;-0.348;2022-11-15T00:13:06;2.50;;;1.20;;
72493;SDS011;60520;49.182;-0.348;2022-11-15T00:15:34;1.92;;;0.85;;
72493;SDS011;60520;49.182;-0.348;2022-11-15T00:18:02;1.63;;;0.90;;
72493;SDS011;60520;49.182;-0.348;2022-11-15T00:20:29;2.75;;;1.17;;
72493;SDS011;60520;49.182;-0.348;2022-11-15T00:22:56;2.65;;;1.00;;
72493;SDS011;60520;49.182;-0.348;2022-11-15T00:25:23;1.95;;;1.00;;
72493;SDS011;60520;49.182;-0.348;2022-11-15T00:27:50;3.30;;;1.20;;
72493;SDS011;60520;49.182;-0.348;2022-11-15T00:30:22;1.88;;;1.15;;
72493;SDS011;60520;49.182;-0.348;2022-11-15T00:32:49;1.52;;;0.80;;
72493;SDS011;60520;49.182;-0.348;2022-11-15T00:35:17;1.98;;;0.90;;
72493;SDS011;60520;49.182;-0.348;2022-11-15T00:37:44;2.00;;;0.90;;
72493;SDS011;60520;49.182;-0.348;2022-11-15T00:40:13;1.80;;;0.85;;
72493;SDS011;60520;49.182;-0.348;2022-11-15T00:42:40;2.10;;;1.10;;
72493;SDS011;60520;49.182;-0.348;2022-11-15T00:45:08;2.05;;;1.02;;
72493;SDS011;60520;49.182;-0.348;2022-11-15T00:47:37;1.58;;;0.82;;
72493;SDS011;60520;49.182;-0.348;2022-11-15T00:50:04;1.63;;;1.00;;
72493;SDS011;60520;49.182;-0.348;2022-11-15T00:52:31;1.98;;;0.90;;
72493;SDS011;60520;49.182;-0.348;2022-11-15T00:54:58;1.88;;;1.02;;
72493;SDS011;60520;49.182;-0.348;2022-11-15T00:57:25;2.22;;;0.88;;
72493;SDS011;60520;49.182;-0.348;2022-11-15T00:59:52;3.47;;;1.10;;
72493;SDS011;60520;49.182;-0.348;2022-11-15T01:02:20;2.28;;;1.00;;
72493;SDS011;60520;49.182;-0.348;2022-11-15T01:04:48;1.40;;;0.63;;
72493;SDS011;60520;49.182;-0.348;2022-11-15T01:07:15;2.22;;;1.00;;
72493;SDS011;60520;49.182;-0.348;2022-11-15T01:09:42;1.45;;;0.90;;
72493;SDS011;60520;49.182;-0.348;2022-11-15T01:12:09;2.40;;;1.00;;
72493;SDS011;60520;49.182;-0.348;2022-11-15T01:14:36;2.33;;;1.10;;
72493;SDS011;60520;49.182;-0.348;2022-11-15T01:17:04;1.52;;;0.90;;
72493;SDS011;60520;49.182;-0.348;2022-11-15T01:19:31;1.50;;;1.10;;
72493;SDS011;60520;49.182;-0.348;2022-11-15T01:21:59;2.45;;;0.95;;
72493;SDS011;60520;49.182;-0.348;2022-11-15T01:24:26;1.15;;;0.70;;
72493;SDS011;60520;49.182;-0.348;2022-11-15T01:26:53;1.40;;;0.75;;
72493;SDS011;60520;49.182;-0.348;2022-11-15T01:29:20;1.60;;;0.73;;
72493;SDS011;60520;49.182;-0.348;2022-11-15T01:31:48;1.48;;;0.85;;
72493;SDS011;60520;49.182;-0.348;2022-11-15T01:34:15;1.75;;;0.80;;
72493;SDS011;60520;49.182;-0.348;2022-11-15T01:36:42;1.95;;;0.88;;
72493;SDS011;60520;49.182;-0.348;2022-11-15T01:39:10;2.33;;;1.00;;
72493;SDS011;60520;49.182;-0.348;2022-11-15T01:41:37;2.50;;;0.98;;
72493;SDS011;60520;49.182;-0.348;2022-11-15T01:46:50;1.98;;;0.98;;
72493;SDS011;60520;49.182;-0.348;2022-11-15T01:49:19;1.10;;;0.73;;
72493;SDS011;60520;49.182;-0.348;2022-11-15T01:51:46;2.05;;;1.00;;
72493;SDS011;60520;49.182;-0.348;2022-11-15T01:54:15;4.13;;;1.10;;
72493;SDS011;60520;49.182;-0.348;2022-11-15T01:56:43;2.80;;;1.00;;
72493;SDS011;60520;49.182;-0.348;2022-11-15T01:59:11;2.22;;;0.90;;
72493;SDS011;60520;49.182;-0.348;2022-11-15T02:01:39;1.95;;;1.00;;
72493;SDS011;60520;49.182;-0.348;2022-11-15T02:04:06;2.22;;;0.88;;
72493;SDS011;60520;49.182;-0.348;2022-11-15T02:06:35;1.75;;;0.80;;
72493;SDS011;60520;49.182;-0.348;2022-11-15T02:09:03;1.75;;;1.05;;
72493;SDS011;60520;49.182;-0.348;2022-11-15T02:11:31;2.33;;;0.80;;
72493;SDS011;60520;49.182;-0.348;2022-11-15T02:13:58;1.48;;;0.80;;
72493;SDS011;60520;49.182;-0.348;2022-11-15T02:16:28;2.35;;;0.75;;
72493;SDS011;60520;49.182;-0.348;2022-11-15T02:18:59;1.27;;;0.70;;
72493;SDS011;60520;49.182;-0.348;2022-11-15T02:21:28;1.83;;;0.85;;
72493;SDS011;60520;49.182;-0.348;2022-11-15T02:24:13;2.63;;;0.90;;
72493;SDS011;60520;49.182;-0.348;2022-11-15T02:29:40;2.22;;;0.98;;
72493;SDS011;60520;49.182;-0.348;2022-11-15T02:32:13;1.85;;;0.82;;
72493;SDS011;60520;49.182;-0.348;2022-11-15T02:34:44;2.40;;;0.95;;
72493;SDS011;60520;49.182;-0.348;2022-11-15T02:37:16;1.45;;;0.90;;
72493;SDS011;60520;49.182;-0.348;2022-11-15T02:39:46;2.08;;;0.90;;
72493;SDS011;60520;49.182;-0.348;2022-11-15T02:42:15;2.08;;;0.90;;
72493;SDS011;60520;49.182;-0.348;2022-11-15T02:45:01;1.27;;;0.90;;
72493;SDS011;60520;49.182;-0.348;2022-11-15T02:47:33;1.40;;;0.95;;
72493;SDS011;60520;49.182;-0.348;2022-11-15T02:50:03;1.70;;;0.70;;
72493;SDS011;60520;49.182;-0.348;2022-11-15T02:52:32;1.13;;;0.77;;
72493;SDS011;60520;49.182;-0.348;2022-11-15T02:54:59;1.83;;;0.90;;
72493;SDS011;60520;49.182;-0.348;2022-11-15T02:57:29;2.88;;;1.00;;
72493;SDS011;60520;49.182;-0.348;2022-11-15T03:00:01;2.08;;;1.00;;
72493;SDS011;60520;49.182;-0.348;2022-11-15T03:02:35;1.98;;;0.93;;
72493;SDS011;60520;49.182;-0.348;2022-11-15T03:05:04;1.83;;;0.85;;
72493;SDS011;60520;49.182;-0.348;2022-11-15T03:07:36;1.73;;;0.80;;
72493;SDS011;60520;49.182;-0.348;2022-11-15T03:10:07;1.77;;;1.00;;
72493;SDS011;60520;49.182;-0.348;2022-11-15T03:12:36;2.50;;;0.82;;
72493;SDS011;60520;49.182;-0.348;2022-11-15T03:15:05;2.63;;;0.90;;
72493;SDS011;60520;49.182;-0.348;2022-11-15T03:17:35;1.25;;;0.80;;
72493;SDS011;60520;49.182;-0.348;2022-11-15T03:20:04;1.20;;;0.70;;
72493;SDS011;60520;49.182;-0.348;2022-11-15T03:22:33;1.70;;;0.70;;
72493;SDS011;60520;49.182;-0.348;2022-11-15T03:25:02;2.75;;;0.95;;
72493;SDS011;60520;49.182;-0.348;2022-11-15T03:27:31;2.17;;;0.90;;
72493;SDS011;60520;49.182;-0.348;2022-11-15T03:29:59;2.78;;;1.17;;
72493;SDS011;60520;49.182;-0.348;2022-11-15T03:32:28;1.75;;;0.90;;
72493;SDS011;60520;49.182;-0.348;2022-11-15T03:34:57;2.95;;;0.90;;
72493;SDS011;60520;49.182;-0.348;2022-11-15T03:37:27;1.30;;;0.80;;
72493;SDS011;60520;49.182;-0.348;2022-11-15T03:39:56;1.88;;;1.10;;
72493;SDS011;60520;49.182;-0.348;2022-11-15T03:42:26;1.88;;;0.90;;
72493;SDS011;60520;49.182;-0.348;2022-11-15T03:44:54;1.90;;;0.90;;
72493;SDS011;60520;49.182;-0.348;2022-11-15T03:47:27;2.30;;;0.90;;
72493;SDS011;60520;49.182;-0.348;2022-11-15T03:49:55;1.58;;;1.00;;
72493;SDS011;60520;49.182;-0.348;2022-11-15T03:52:25;1.30;;;0.82;;
72493;SDS011;60520;49.182;-0.348;2022-11-15T03:54:53;3.10;;;1.00;;
72493;SDS011;60520;49.182;-0.348;2022-11-15T03:57:20;1.77;;;0.95;;
72493;SDS011;60520;49.182;-0.348;2022-11-15T03:59:47;1.65;;;1.00;;
72493;SDS011;60520;49.182;-0.348;2022-11-15T04:02:15;2.20;;;1.00;;
72493;SDS011;60520;49.182;-0.348;2022-11-15T04:04:42;1.30;;;0.80;;
72493;SDS011;60520;49.182;-0.348;2022-11-15T04:07:09;1.85;;;1.00;;
72493;SDS011;60520;49.182;-0.348;2022-11-15T04:09:37;2.50;;;0.80;;
72493;SDS011;60520;49.182;-0.348;2022-11-15T04:12:24;1.95;;;0.90;;
72493;SDS011;60520;49.182;-0.348;2022-11-15T04:14:57;2.05;;;0.90;;
72493;SDS011;60520;49.182;-0.348;2022-11-15T04:17:33;1.92;;;0.90;;
72493;SDS011;60520;49.182;-0.348;2022-11-15T04:20:01;2.35;;;0.90;;
72493;SDS011;60520;49.182;-0.348;2022-11-15T04:22:45;1.25;;;0.80;;
72493;SDS011;60520;49.182;-0.348;2022-11-15T04:25:31;2.22;;;0.90;;
72493;SDS011;60520;49.182;-0.348;2022-11-15T04:27:59;2.42;;;1.00;;
72493;SDS011;60520;49.182;-0.348;2022-11-15T04:30:26;1.58;;;0.70;;
72493;SDS011;60520;49.182;-0.348;2022-11-15T04:32:53;1.60;;;0.80;;
72493;SDS011;60520;49.182;-0.348;2022-11-15T04:35:20;2.17;;;0.95;;
72493;SDS011;60520;49.182;-0.348;2022-11-15T04:37:47;1.77;;;0.90;;
72493;SDS011;60520;49.182;-0.348;2022-11-15T04:40:14;2.33;;;0.70;;
72493;SDS011;60520;49.182;-0.348;2022-11-15T04:42:43;2.17;;;0.85;;
72493;SDS011;60520;49.182;-0.348;2022-11-15T04:45:10;1.75;;;1.00;;
72493;SDS011;60520;49.182;-0.348;2022-11-15T04:47:37;1.73;;;0.75;;
72493;SDS011;60520;49.182;-0.348;2022-11-15T04:50:05;1.77;;;0.90;;
72493;SDS011;60520;49.182;-0.348;2022-11-15T04:52:32;1.90;;;0.77;;
72493;SDS011;60520;49.182;-0.348;2022-11-15T04:54:59;1.95;;;0.82;;
72493;SDS011;60520;49.182;-0.348;2022-11-15T04:57:26;1.58;;;0.90;;
72493;SDS011;60520;49.182;-0.348;2022-11-15T04:59:54;2.00;;;0.80;;
72493;SDS011;60520;49.182;-0.348;2022-11-15T05:02:22;1.73;;;0.90;;
72493;SDS011;60520;49.182;-0.348;2022-11-15T05:04:49;1.30;;;0.80;;
72493;SDS011;60520;49.182;-0.348;2022-11-15T05:07:15;1.20;;;0.80;;
72493;SDS011;60520;49.182;-0.348;2022-11-15T05:09:42;2.92;;;0.90;;
72493;SDS011;60520;49.182;-0.348;2022-11-15T05:12:09;1.35;;;0.90;;
72493;SDS011;60520;49.182;-0.348;2022-11-15T05:14:36;1.88;;;0.88;;
72493;SDS011;60520;49.182;-0.348;2022-11-15T05:17:04;1.48;;;0.82;;
72493;SDS011;60520;49.182;-0.348;2022-11-15T05:19:32;1.60;;;0.80;;
72493;SDS011;60520;49.182;-0.348;2022-11-15T05:21:59;2.00;;;0.88;;
72493;SDS011;60520;49.182;-0.348;2022-11-15T05:24:26;2.30;;;0.90;;
72493;SDS011;60520;49.182;-0.348;2022-11-15T05:26:53;1.25;;;0.65;;
72493;SDS011;60520;49.182;-0.348;2022-11-15T05:29:20;1.80;;;0.77;;
72493;SDS011;60520;49.182;-0.348;2022-11-15T05:31:47;2.35;;;0.93;;
72493;SDS011;60520;49.182;-0.348;2022-11-15T05:34:16;1.50;;;0.95;;
72493;SDS011;60520;49.182;-0.348;2022-11-15T05:36:43;1.10;;;0.70;;
72493;SDS011;60520;49.182;-0.348;2022-11-15T05:39:11;1.77;;;0.98;;
72493;SDS011;60520;49.182;-0.348;2022-11-15T05:41:39;1.35;;;0.70;;
72493;SDS011;60520;49.182;-0.348;2022-11-15T05:44:07;1.77;;;0.75;;
72493;SDS011;60520;49.182;-0.348;2022-11-15T05:46:36;2.40;;;0.88;;
72493;SDS011;60520;49.182;-0.348;2022-11-15T05:49:06;2.50;;;0.90;;
72493;SDS011;60520;49.182;-0.348;2022-11-15T05:51:35;1.90;;;0.80;;
72493;SDS011;60520;49.182;-0.348;2022-11-15T05:54:02;3.25;;;0.90;;
72493;SDS011;60520;49.182;-0.348;2022-11-15T05:56:29;1.17;;;0.60;;
72493;SDS011;60520;49.182;-0.348;2022-11-15T05:58:57;3.38;;;0.85;;
72493;SDS011;60520;49.182;-0.348;2022-11-15T06:01:24;2.25;;;1.05;;
72493;SDS011;60520;49.182;-0.348;2022-11-15T06:03:52;2.88;;;1.00;;
72493;SDS011;60520;49.182;-0.348;2022-11-15T06:06:19;1.45;;;0.88;;
72493;SDS011;60520;49.182;-0.348;2022-11-15T06:08:47;1.23;;;0.70;;
72493;SDS011;60520;49.182;-0.348;2022-11-15T06:11:14;1.08;;;0.70;;
72493;SDS011;60520;49.182;-0.348;2022-11-15T06:13:41;1.73;;;0.70;;
72493;SDS011;60520;49.182;-0.348;2022-11-15T06:16:08;0.70;;;0.52;;
72493;SDS011;60520;49.182;-0.348;2022-11-15T06:18:36;1.98;;;0.73;;
72493;SDS011;60520;49.182;-0.348;2022-11-15T06:21:03;1.75;;;0.50;;
72493;SDS011;60520;49.182;-0.348;2022-11-15T06:23:31;1.33;;;0.60;;
72493;SDS011;60520;49.182;-0.348;2022-11-15T06:26:00;0.88;;;0.57;;
72493;SDS011;60520;49.182;-0.348;2022-11-15T06:28:28;1.25;;;0.50;;
72493;SDS011;60520;49.182;-0.348;2022-11-15T06:30:55;1.30;;;0.68;;
72493;SDS011;60520;49.182;-0.348;2022-11-15T06:33:22;0.95;;;0.50;;
72493;SDS011;60520;49.182;-0.348;2022-11-15T06:35:49;0.80;;;0.40;;
72493;SDS011;60520;49.182;-0.348;2022-11-15T06:38:17;0.90;;;0.40;;
72493;SDS011;60520;49.182;-0.348;2022-11-15T06:40:44;1.00;;;0.60;;
72493;SDS011;60520;49.182;-0.348;2022-11-15T06:43:12;0.40;;;0.40;;
72493;SDS011;60520;49.182;-0.348;2022-11-15T06:45:40;1.40;;;0.60;;
72493;SDS011;60520;49.182;-0.348;2022-11-15T06:48:07;1.00;;;0.50;;
72493;SDS011;60520;49.182;-0.348;2022-11-15T06:50:34;1.25;;;0.52;;
72493;SDS011;60520;49.182;-0.348;2022-11-15T06:53:01;0.55;;;0.30;;
72493;SDS011;60520;49.182;-0.348;2022-11-15T06:55:28;1.15;;;0.50;;
72493;SDS011;60520;49.182;-0.348;2022-11-15T06:57:56;1.48;;;0.50;;
72493;SDS011;60520;49.182;-0.348;2022-11-15T07:00:27;6.57;;;0.80;;
72493;SDS011;60520;49.182;-0.348;2022-11-15T07:02:54;17.08;;;1.30;;
72493;SDS011;60520;49.182;-0.348;2022-11-15T07:05:21;18.65;;;1.48;;
72493;SDS011;60520;49.182;-0.348;2022-11-15T07:07:52;19.90;;;1.50;;
72493;SDS011;60520;49.182;-0.348;2022-11-15T07:10:19;9.80;;;0.90;;
72493;SDS011;60520;49.182;-0.348;2022-11-15T07:12:46;11.73;;;1.23;;
72493;SDS011;60520;49.182;-0.348;2022-11-15T07:15:14;16.02;;;0.98;;
72493;SDS011;60520;49.182;-0.348;2022-11-15T07:17:43;13.95;;;0.90;;
72493;SDS011;60520;49.182;-0.348;2022-11-15T07:20:10;7.70;;;0.85;;
72493;SDS011;60520;49.182;-0.348;2022-11-15T07:22:38;10.70;;;1.05;;
72493;SDS011;60520;49.182;-0.348;2022-11-15T07:25:05;11.57;;;0.88;;
72493;SDS011;60520;49.182;-0.348;2022-11-15T07:27:32;4.43;;;0.60;;
72493;SDS011;60520;49.182;-0.348;2022-11-15T07:29:59;10.48;;;1.13;;
72493;SDS011;60520;49.182;-0.348;2022-11-15T07:32:27;7.50;;;0.90;;
72493;SDS011;60520;49.182;-0.348;2022-11-15T07:34:55;2.33;;;0.75;;
72493;SDS011;60520;49.182;-0.348;2022-11-15T07:37:22;6.13;;;0.60;;
72493;SDS011;60520;49.182;-0.348;2022-11-15T07:39:49;2.22;;;0.57;;
72493;SDS011;60520;49.182;-0.348;2022-11-15T07:42:16;2.72;;;0.60;;
72493;SDS011;60520;49.182;-0.348;2022-11-15T07:45:01;1.70;;;0.60;;
72493;SDS011;60520;49.182;-0.348;2022-11-15T07:47:28;3.47;;;0.75;;
72493;SDS011;60520;49.182;-0.348;2022-11-15T07:49:56;3.00;;;0.50;;
72493;SDS011;60520;49.182;-0.348;2022-11-15T07:52:23;1.55;;;0.35;;
72493;SDS011;60520;49.182;-0.348;2022-11-15T07:54:51;2.60;;;0.50;;
72493;SDS011;60520;49.182;-0.348;2022-11-15T07:57:18;2.03;;;0.55;;
72493;SDS011;60520;49.182;-0.348;2022-11-15T07:59:45;3.30;;;0.52;;
72493;SDS011;60520;49.182;-0.348;2022-11-15T08:02:12;5.47;;;0.43;;
72493;SDS011;60520;49.182;-0.348;2022-11-15T08:04:41;1.00;;;0.40;;
72493;SDS011;60520;49.182;-0.348;2022-11-15T08:07:10;1.42;;;0.50;;
72493;SDS011;60520;49.182;-0.348;2022-11-15T08:09:38;0.73;;;0.40;;
72493;SDS011;60520;49.182;-0.348;2022-11-15T08:12:05;0.90;;;0.40;;
72493;SDS011;60520;49.182;-0.348;2022-11-15T08:14:32;2.05;;;0.40;;
72493;SDS011;60520;49.182;-0.348;2022-11-15T08:16:59;0.47;;;0.30;;
72493;SDS011;60520;49.182;-0.348;2022-11-15T08:19:27;0.80;;;0.40;;
72493;SDS011;60520;49.182;-0.348;2022-11-15T08:21:54;0.95;;;0.40;;
72493;SDS011;60520;49.182;-0.348;2022-11-15T08:24:22;0.90;;;0.30;;
72493;SDS011;60520;49.182;-0.348;2022-11-15T08:26:50;0.40;;;0.30;;
72493;SDS011;60520;49.182;-0.348;2022-11-15T08:29:17;1.20;;;0.50;;
72493;SDS011;60520;49.182;-0.348;2022-11-15T08:31:44;0.55;;;0.32;;
72493;SDS011;60520;49.182;-0.348;2022-11-15T08:34:11;0.70;;;0.30;;
72493;SDS011;60520;49.182;-0.348;2022-11-15T08:36:38;1.13;;;0.30;;
72493;SDS011;60520;49.182;-0.348;2022-11-15T08:39:05;1.95;;;0.40;;
72493;SDS011;60520;49.182;-0.348;2022-11-15T08:41:34;1.85;;;0.40;;
72493;SDS011;60520;49.182;-0.348;2022-11-15T08:44:02;0.95;;;0.40;;
72493;SDS011;60520;49.182;-0.348;2022-11-15T08:46:29;0.82;;;0.40;;
72493;SDS011;60520;49.182;-0.348;2022-11-15T08:48:56;0.95;;;0.40;;
72493;SDS011;60520;49.182;-0.348;2022-11-15T08:51:24;2.28;;;0.40;;
72493;SDS011;60520;49.182;-0.348;2022-11-15T08:53:51;4.88;;;0.90;;
72493;SDS011;60520;49.182;-0.348;2022-11-15T08:56:18;3.33;;;0.80;;
72493;SDS011;60520;49.182;-0.348;2022-11-15T08:58:46;4.95;;;0.75;;
72493;SDS011;60520;49.182;-0.348;2022-11-15T09:01:17;1.95;;;0.70;;
72493;SDS011;60520;49.182;-0.348;2022-11-15T09:03:45;3.47;;;0.60;;
72493;SDS011;60520;49.182;-0.348;2022-11-15T09:06:12;6.25;;;0.70;;
72493;SDS011;60520;49.182;-0.348;2022-11-15T09:08:40;2.17;;;0.73;;
72493;SDS011;60520;49.182;-0.348;2022-11-15T09:11:08;3.85;;;0.90;;
72493;SDS011;60520;49.182;-0.348;2022-11-15T09:13:36;1.83;;;0.88;;
72493;SDS011;60520;49.182;-0.348;2022-11-15T09:16:05;6.43;;;0.93;;
72493;SDS011;60520;49.182;-0.348;2022-11-15T09:18:32;1.45;;;0.70;;
72493;SDS011;60520;49.182;-0.348;2022-11-15T09:20:59;0.95;;;0.60;;
72493;SDS011;60520;49.182;-0.348;2022-11-15T09:23:27;1.60;;;0.70;;
72493;SDS011;60520;49.182;-0.348;2022-11-15T09:25:58;2.90;;;0.75;;
72493;SDS011;60520;49.182;-0.348;2022-11-15T09:28:25;1.33;;;0.77;;
72493;SDS011;60520;49.182;-0.348;2022-11-15T09:30:55;3.80;;;0.60;;
72493;SDS011;60520;49.182;-0.348;2022-11-15T09:33:23;1.42;;;0.63;;
72493;SDS011;60520;49.182;-0.348;2022-11-15T09:35:50;2.65;;;0.65;;
72493;SDS011;60520;49.182;-0.348;2022-11-15T09:38:18;1.55;;;0.70;;
72493;SDS011;60520;49.182;-0.348;2022-11-15T09:40:45;1.27;;;0.70;;
72493;SDS011;60520;49.182;-0.348;2022-11-15T09:43:23;1.30;;;0.60;;
72493;SDS011;60520;49.182;-0.348;2022-11-15T09:45:54;2.20;;;0.70;;
72493;SDS011;60520;49.182;-0.348;2022-11-15T09:48:33;2.35;;;1.00;;
72493;SDS011;60520;49.182;-0.348;2022-11-15T09:51:03;2.05;;;1.00;;
72493;SDS011;60520;49.182;-0.348;2022-11-15T09:53:32;2.97;;;0.95;;
72493;SDS011;60520;49.182;-0.348;2022-11-15T09:56:02;1.45;;;0.85;;
72493;SDS011;60520;49.182;-0.348;2022-11-15T09:58:33;2.78;;;1.23;;
72493;SDS011;60520;49.182;-0.348;2022-11-15T10:01:02;1.23;;;0.90;;
72493;SDS011;60520;49.182;-0.348;2022-11-15T10:03:34;2.13;;;1.20;;
72493;SDS011;60520;49.182;-0.348;2022-11-15T10:06:02;1.23;;;0.80;;
72493;SDS011;60520;49.182;-0.348;2022-11-15T10:08:33;1.83;;;0.90;;
72493;SDS011;60520;49.182;-0.348;2022-11-15T10:11:03;3.25;;;1.33;;
72493;SDS011;60520;49.182;-0.348;2022-11-15T10:13:31;2.10;;;1.10;;
72493;SDS011;60520;49.182;-0.348;2022-11-15T10:16:00;1.60;;;1.20;;
72493;SDS011;60520;49.182;-0.348;2022-11-15T10:18:32;2.40;;;0.90;;
72493;SDS011;60520;49.182;-0.348;2022-11-15T10:21:09;1.58;;;0.90;;
72493;SDS011;60520;49.182;-0.348;2022-11-15T10:23:39;1.50;;;1.05;;
72493;SDS011;60520;49.182;-0.348;2022-11-15T10:26:07;1.10;;;0.75;;
72493;SDS011;60520;49.182;-0.348;2022-11-15T10:28:35;1.25;;;0.82;;
72493;SDS011;60520;49.182;-0.348;2022-11-15T10:31:02;2.20;;;0.93;;
72493;SDS011;60520;49.182;-0.348;2022-11-15T10:33:30;1.00;;;0.80;;
72493;SDS011;60520;49.182;-0.348;2022-11-15T10:36:15;1.02;;;0.80;;
72493;SDS011;60520;49.182;-0.348;2022-11-15T10:38:50;1.75;;;0.90;;
72493;SDS011;60520;49.182;-0.348;2022-11-15T10:41:19;0.80;;;0.60;;
72493;SDS011;60520;49.182;-0.348;2022-11-15T10:44:00;0.95;;;0.80;;
72493;SDS011;60520;49.182;-0.348;2022-11-15T10:46:28;1.20;;;0.80;;
72493;SDS011;60520;49.182;-0.348;2022-11-15T10:48:58;0.85;;;0.60;;
72493;SDS011;60520;49.182;-0.348;2022-11-15T10:51:41;1.00;;;0.70;;
72493;SDS011;60520;49.182;-0.348;2022-11-15T10:54:09;2.85;;;0.90;;
72493;SDS011;60520;49.182;-0.348;2022-11-15T10:56:38;0.90;;;0.70;;
72493;SDS011;60520;49.182;-0.348;2022-11-15T10:59:09;0.70;;;0.60;;
72493;SDS011;60520;49.182;-0.348;2022-11-15T11:01:45;1.80;;;0.80;;
72493;SDS011;60520;49.182;-0.348;2022-11-15T11:04:12;1.60;;;0.73;;
72493;SDS011;60520;49.182;-0.348;2022-11-15T11:06:47;1.33;;;0.75;;
72493;SDS011;60520;49.182;-0.348;2022-11-15T11:09:22;2.35;;;0.90;;
72493;SDS011;60520;49.182;-0.348;2022-11-15T11:11:51;1.80;;;0.98;;
72493;SDS011;60520;49.182;-0.348;2022-11-15T11:14:20;1.27;;;0.63;;
72493;SDS011;60520;49.182;-0.348;2022-11-15T11:16:48;1.45;;;0.80;;
72493;SDS011;60520;49.182;-0.348;2022-11-15T11:19:30;1.17;;;0.88;;
72493;SDS011;60520;49.182;-0.348;2022-11-15T11:22:03;1.15;;;0.95;;
72493;SDS011;60520;49.182;-0.348;2022-11-15T11:24:33;1.30;;;0.90;;
72493;SDS011;60520;49.182;-0.348;2022-11-15T11:27:07;3.63;;;0.90;;
72493;SDS011;60520;49.182;-0.348;2022-11-15T11:29:41;1.67;;;1.00;;
72493;SDS011;60520;49.182;-0.348;2022-11-15T11:32:18;2.35;;;1.10;;
72493;SDS011;60520;49.182;-0.348;2022-11-15T11:34:50;3.22;;;1.20;;
72493;SDS011;60520;49.182;-0.348;2022-11-15T11:37:24;2.47;;;1.10;;
72493;SDS011;60520;49.182;-0.348;2022-11-15T11:39:56;1.63;;;1.20;;
72493;SDS011;60520;49.182;-0.348;2022-11-15T11:42:30;2.80;;;1.27;;
72493;SDS011;60520;49.182;-0.348;2022-11-15T11:45:05;1.75;;;1.17;;
72493;SDS011;60520;49.182;-0.348;2022-11-15T11:47:38;5.80;;;1.33;;
72493;SDS011;60520;49.182;-0.348;2022-11-15T11:50:10;2.25;;;1.20;;
72493;SDS011;60520;49.182;-0.348;2022-11-15T11:52:41;1.35;;;1.00;;
72493;SDS011;60520;49.182;-0.348;2022-11-15T11:55:12;2.40;;;1.40;;
72493;SDS011;60520;49.182;-0.348;2022-11-15T11:57:42;2.70;;;1.60;;
72493;SDS011;60520;49.182;-0.348;2022-11-15T12:00:15;2.03;;;1.33;;
72493;SDS011;60520;49.182;-0.348;2022-11-15T12:02:44;3.20;;;1.77;;
72493;SDS011;60520;49.182;-0.348;2022-11-15T12:05:15;3.10;;;1.73;;
72493;SDS011;60520;49.182;-0.348;2022-11-15T12:07:46;6.32;;;1.90;;
72493;SDS011;60520;49.182;-0.348;2022-11-15T12:10:19;3.05;;;1.55;;
72493;SDS011;60520;49.182;-0.348;2022-11-15T12:12:50;2.30;;;1.80;;
72493;SDS011;60520;49.182;-0.348;2022-11-15T12:15:19;2.80;;;1.73;;
72493;SDS011;60520;49.182;-0.348;2022-11-15T12:17:47;3.05;;;1.85;;
72493;SDS011;60520;49.182;-0.348;2022-11-15T12:20:16;3.65;;;1.75;;
72493;SDS011;60520;49.182;-0.348;2022-11-15T12:22:46;1.98;;;1.70;;
72493;SDS011;60520;49.182;-0.348;2022-11-15T12:25:16;2.38;;;1.60;;
72493;SDS011;60520;49.182;-0.348;2022-11-15T12:27:44;4.25;;;2.42;;
72493;SDS011;60520;49.182;-0.348;2022-11-15T12:30:14;2.92;;;2.42;;
72493;SDS011;60520;49.182;-0.348;2022-11-15T12:32:49;3.50;;;2.47;;
72493;SDS011;60520;49.182;-0.348;2022-11-15T12:35:27;3.03;;;2.50;;
72493;SDS011;60520;49.182;-0.348;2022-11-15T12:37:56;2.83;;;2.45;;
72493;SDS011;60520;49.182;-0.348;2022-11-15T12:40:30;3.95;;;2.80;;
72493;SDS011;60520;49.182;-0.348;2022-11-15T12:43:02;3.60;;;3.08;;
72493;SDS011;60520;49.182;-0.348;2022-11-15T12:45:30;3.97;;;3.00;;
72493;SDS011;60520;49.182;-0.348;2022-11-15T12:50:52;2.90;;;2.53;;
72493;SDS011;60520;49.182;-0.348;2022-11-15T12:53:28;4.72;;;2.50;;
72493;SDS011;60520;49.182;-0.348;2022-11-15T12:56:09;2.67;;;2.30;;
72493;SDS011;60520;49.182;-0.348;2022-11-15T12:58:44;2.97;;;1.90;;
72493;SDS011;60520;49.182;-0.348;2022-11-15T13:01:51;3.38;;;2.33;;
72493;SDS011;60520;49.182;-0.348;2022-11-15T13:04:13;3.03;;;2.22;;
72493;SDS011;60520;49.182;-0.348;2022-11-15T13:06:41;2.97;;;2.33;;
72493;SDS011;60520;49.182;-0.348;2022-11-15T13:11:56;2.40;;;2.17;;
72493;SDS011;60520;49.182;-0.348;2022-11-15T13:14:44;2.03;;;1.83;;
72493;SDS011;60520;49.182;-0.348;2022-11-15T13:20:17;2.75;;;1.90;;
72493;SDS011;60520;49.182;-0.348;2022-11-15T13:22:45;3.28;;;2.00;;
72493;SDS011;60520;49.182;-0.348;2022-11-15T13:25:40;2.38;;;2.00;;
72493;SDS011;60520;49.182;-0.348;2022-11-15T13:28:20;2.10;;;1.80;;
72493;SDS011;60520;49.182;-0.348;2022-11-15T13:30:51;1.77;;;1.52;;
72493;SDS011;60520;49.182;-0.348;2022-11-15T13:33:19;3.60;;;1.90;;
72493;SDS011;60520;49.182;-0.348;2022-11-15T13:35:47;1.77;;;1.60;;
72493;SDS011;60520;49.182;-0.348;2022-11-15T13:38:17;1.70;;;1.60;;
72493;SDS011;60520;49.182;-0.348;2022-11-15T13:40:45;1.70;;;1.40;;
72493;SDS011;60520;49.182;-0.348;2022-11-15T13:43:28;2.10;;;1.45;;
72493;SDS011;60520;49.182;-0.348;2022-11-15T13:48:38;1.90;;;1.40;;
72493;SDS011;60520;49.182;-0.348;2022-11-15T13:51:06;1.60;;;1.30;;
72493;SDS011;60520;49.182;-0.348;2022-11-15T13:53:34;1.45;;;1.20;;
72493;SDS011;60520;49.182;-0.348;2022-11-15T13:56:04;1.60;;;1.10;;
72493;SDS011;60520;49.182;-0.348;2022-11-15T13:58:32;1.55;;;1.30;;
72493;SDS011;60520;49.182;-0.348;2022-11-15T14:01:00;1.30;;;1.10;;
72493;SDS011;60520;49.182;-0.348;2022-11-15T14:03:28;1.38;;;0.90;;
72493;SDS011;60520;49.182;-0.348;2022-11-15T14:06:03;1.45;;;1.20;;
72493;SDS011;60520;49.182;-0.348;2022-11-15T14:08:32;3.75;;;1.20;;
72493;SDS011;60520;49.182;-0.348;2022-11-15T14:11:07;1.42;;;1.30;;
72493;SDS011;60520;49.182;-0.348;2022-11-15T14:13:36;2.38;;;1.30;;
72493;SDS011;60520;49.182;-0.348;2022-11-15T14:18:48;1.15;;;1.00;;
72493;SDS011;60520;49.182;-0.348;2022-11-15T14:21:16;1.00;;;0.90;;
72493;SDS011;60520;49.182;-0.348;2022-11-15T14:23:43;2.55;;;1.50;;
72493;SDS011;60520;49.182;-0.348;2022-11-15T14:26:11;1.80;;;0.95;;
72493;SDS011;60520;49.182;-0.348;2022-11-15T14:28:53;1.73;;;1.10;;
72493;SDS011;60520;49.182;-0.348;2022-11-15T14:31:20;1.27;;;0.80;;
72493;SDS011;60520;49.182;-0.348;2022-11-15T14:33:48;1.35;;;0.90;;
72493;SDS011;60520;49.182;-0.348;2022-11-15T14:36:16;1.30;;;1.00;;
72493;SDS011;60520;49.182;-0.348;2022-11-15T14:38:43;1.42;;;1.10;;
72493;SDS011;60520;49.182;-0.348;2022-11-15T14:41:15;1.30;;;0.90;;
72493;SDS011;60520;49.182;-0.348;2022-11-15T14:43:44;2.55;;;1.00;;
72493;SDS011;60520;49.182;-0.348;2022-11-15T14:46:12;1.50;;;0.90;;
72493;SDS011;60520;49.182;-0.348;2022-11-15T14:48:39;1.08;;;0.90;;
72493;SDS011;60520;49.182;-0.348;2022-11-15T14:51:09;1.38;;;0.88;;
72493;SDS011;60520;49.182;-0.348;2022-11-15T14:53:38;1.00;;;0.82;;
72493;SDS011;60520;49.182;-0.348;2022-11-15T14:56:05;1.20;;;0.82;;
72493;SDS011;60520;49.182;-0.348;2022-11-15T14:58:33;1.45;;;0.90;;
72493;SDS011;60520;49.182;-0.348;2022-11-15T15:01:01;1.35;;;0.90;;
72493;SDS011;60520;49.182;-0.348;2022-11-15T15:03:30;1.88;;;0.70;;
72493;SDS011;60520;49.182;-0.348;2022-11-15T15:05:57;1.80;;;1.10;;